sensor_id;sensor_type;location;lat;lon;timestamp;P1;durP1;ratioP1;P2;durP2;ratioP2
56319;SDS011;42226;42.382;23.748;2023-09-07T00:01:00;18.33;;;16.45;;
56319;SDS011;42226;42.382;23.748;2023-09-07T00:03:32;17.52;;;15.93;;
56319;SDS011;42226;42.382;23.748;2023-09-07T00:06:00;17.30;;;15.80;;
56319;SDS011;42226;42.382;23.748;2023-09-07T00:08:28;18.45;;;16.75;;
56319;SDS011;42226;42.382;23.748;2023-09-07T00:11:02;17.02;;;15.30;;
56319;SDS011;42226;42.382;23.748;2023-09-07T00:13:33;18.08;;;16.35;;
56319;SDS011;42226;42.382;23.748;2023-09-07T00:16:02;19.33;;;17.40;;
56319;SDS011;42226;42.382;23.748;2023-09-07T00:18:32;17.52;;;15.77;;
56319;SDS011;42226;42.382;23.748;2023-09-07T00:21:00;18.25;;;16.55;;
56319;SDS011;42226;42.382;23.748;2023-09-07T00:23:28;18.02;;;16.38;;
56319;SDS011;42226;42.382;23.748;2023-09-07T00:25:57;18.33;;;16.63;;
56319;SDS011;42226;42.382;23.748;2023-09-07T00:28:24;18.35;;;16.52;;
56319;SDS011;42226;42.382;23.748;2023-09-07T00:30:52;18.20;;;16.40;;
56319;SDS011;42226;42.382;23.748;2023-09-07T00:33:18;16.95;;;15.32;;
56319;SDS011;42226;42.382;23.748;2023-09-07T00:35:46;18.05;;;16.35;;
56319;SDS011;42226;42.382;23.748;2023-09-07T00:38:13;17.73;;;16.00;;
56319;SDS011;42226;42.382;23.748;2023-09-07T00:40:44;18.45;;;16.70;;
56319;SDS011;42226;42.382;23.748;2023-09-07T00:43:11;18.35;;;16.27;;
56319;SDS011;42226;42.382;23.748;2023-09-07T00:45:39;17.25;;;15.65;;
56319;SDS011;42226;42.382;23.748;2023-09-07T00:48:07;17.98;;;16.10;;
56319;SDS011;42226;42.382;23.748;2023-09-07T00:50:34;17.80;;;16.15;;
56319;SDS011;42226;42.382;23.748;2023-09-07T00:53:02;17.52;;;15.73;;
56319;SDS011;42226;42.382;23.748;2023-09-07T00:55:32;21.88;;;16.20;;
56319;SDS011;42226;42.382;23.748;2023-09-07T00:58:02;18.88;;;16.98;;
56319;SDS011;42226;42.382;23.748;2023-09-07T01:00:30;18.42;;;16.50;;
56319;SDS011;42226;42.382;23.748;2023-09-07T01:02:58;19.70;;;17.73;;
56319;SDS011;42226;42.382;23.748;2023-09-07T01:06:01;19.60;;;17.58;;
56319;SDS011;42226;42.382;23.748;2023-09-07T01:08:26;18.60;;;16.90;;
56319;SDS011;42226;42.382;23.748;2023-09-07T01:11:16;18.10;;;16.33;;
56319;SDS011;42226;42.382;23.748;2023-09-07T01:13:52;20.85;;;18.00;;
56319;SDS011;42226;42.382;23.748;2023-09-07T01:16:20;20.88;;;18.67;;
56319;SDS011;42226;42.382;23.748;2023-09-07T01:18:50;19.50;;;17.50;;
56319;SDS011;42226;42.382;23.748;2023-09-07T01:21:17;19.85;;;17.75;;
56319;SDS011;42226;42.382;23.748;2023-09-07T01:23:45;19.73;;;17.83;;
56319;SDS011;42226;42.382;23.748;2023-09-07T01:26:14;21.58;;;19.35;;
56319;SDS011;42226;42.382;23.748;2023-09-07T01:28:42;21.23;;;19.33;;
56319;SDS011;42226;42.382;23.748;2023-09-07T01:31:10;19.75;;;17.92;;
56319;SDS011;42226;42.382;23.748;2023-09-07T01:33:38;19.73;;;17.73;;
56319;SDS011;42226;42.382;23.748;2023-09-07T01:36:05;21.17;;;19.17;;
56319;SDS011;42226;42.382;23.748;2023-09-07T01:38:32;20.63;;;18.63;;
56319;SDS011;42226;42.382;23.748;2023-09-07T01:41:01;19.58;;;17.50;;
56319;SDS011;42226;42.382;23.748;2023-09-07T01:43:28;20.23;;;18.17;;
56319;SDS011;42226;42.382;23.748;2023-09-07T01:45:56;21.02;;;17.67;;
56319;SDS011;42226;42.382;23.748;2023-09-07T01:48:23;18.50;;;16.70;;
56319;SDS011;42226;42.382;23.748;2023-09-07T01:50:53;19.35;;;17.55;;
56319;SDS011;42226;42.382;23.748;2023-09-07T01:53:20;18.83;;;16.85;;
56319;SDS011;42226;42.382;23.748;2023-09-07T01:55:48;18.83;;;17.02;;
56319;SDS011;42226;42.382;23.748;2023-09-07T01:58:17;19.02;;;17.05;;
56319;SDS011;42226;42.382;23.748;2023-09-07T02:00:44;19.33;;;17.48;;
56319;SDS011;42226;42.382;23.748;2023-09-07T02:03:12;17.38;;;15.68;;
56319;SDS011;42226;42.382;23.748;2023-09-07T02:05:39;17.85;;;16.08;;
56319;SDS011;42226;42.382;23.748;2023-09-07T02:08:07;16.25;;;14.75;;
56319;SDS011;42226;42.382;23.748;2023-09-07T02:10:34;17.48;;;15.70;;
56319;SDS011;42226;42.382;23.748;2023-09-07T02:13:02;15.73;;;14.25;;
56319;SDS011;42226;42.382;23.748;2023-09-07T02:15:28;16.25;;;14.55;;
56319;SDS011;42226;42.382;23.748;2023-09-07T02:17:57;15.85;;;14.27;;
56319;SDS011;42226;42.382;23.748;2023-09-07T02:20:24;15.30;;;13.95;;
56319;SDS011;42226;42.382;23.748;2023-09-07T02:22:52;15.75;;;14.25;;
56319;SDS011;42226;42.382;23.748;2023-09-07T02:25:20;15.45;;;13.95;;
56319;SDS011;42226;42.382;23.748;2023-09-07T02:27:48;15.93;;;14.43;;
56319;SDS011;42226;42.382;23.748;2023-09-07T02:30:15;15.70;;;14.27;;
56319;SDS011;42226;42.382;23.748;2023-09-07T02:32:43;16.50;;;14.88;;
56319;SDS011;42226;42.382;23.748;2023-09-07T02:35:11;16.98;;;15.27;;
56319;SDS011;42226;42.382;23.748;2023-09-07T02:37:38;16.40;;;14.35;;
56319;SDS011;42226;42.382;23.748;2023-09-07T02:40:05;16.60;;;14.60;;
56319;SDS011;42226;42.382;23.748;2023-09-07T02:42:33;32.03;;;15.77;;
56319;SDS011;42226;42.382;23.748;2023-09-07T02:45:01;16.75;;;14.98;;
56319;SDS011;42226;42.382;23.748;2023-09-07T02:47:28;17.25;;;15.45;;
56319;SDS011;42226;42.382;23.748;2023-09-07T02:49:57;17.00;;;14.65;;
56319;SDS011;42226;42.382;23.748;2023-09-07T02:52:24;17.80;;;14.68;;
56319;SDS011;42226;42.382;23.748;2023-09-07T02:54:52;17.90;;;15.95;;
56319;SDS011;42226;42.382;23.748;2023-09-07T02:57:20;17.63;;;15.05;;
56319;SDS011;42226;42.382;23.748;2023-09-07T02:59:47;16.73;;;15.13;;
56319;SDS011;42226;42.382;23.748;2023-09-07T03:02:15;16.05;;;14.55;;
56319;SDS011;42226;42.382;23.748;2023-09-07T03:04:42;16.85;;;15.20;;
56319;SDS011;42226;42.382;23.748;2023-09-07T03:07:09;17.17;;;15.48;;
56319;SDS011;42226;42.382;23.748;2023-09-07T03:09:36;17.27;;;15.57;;
56319;SDS011;42226;42.382;23.748;2023-09-07T03:12:04;17.80;;;15.45;;
56319;SDS011;42226;42.382;23.748;2023-09-07T03:17:29;16.42;;;14.73;;
56319;SDS011;42226;42.382;23.748;2023-09-07T03:19:56;16.70;;;15.00;;
56319;SDS011;42226;42.382;23.748;2023-09-07T03:22:25;17.08;;;15.45;;
56319;SDS011;42226;42.382;23.748;2023-09-07T03:24:53;16.83;;;14.73;;
56319;SDS011;42226;42.382;23.748;2023-09-07T03:27:22;16.98;;;15.35;;
56319;SDS011;42226;42.382;23.748;2023-09-07T03:29:49;15.65;;;14.25;;
56319;SDS011;42226;42.382;23.748;2023-09-07T03:32:20;15.63;;;14.00;;
56319;SDS011;42226;42.382;23.748;2023-09-07T03:34:47;16.67;;;14.68;;
56319;SDS011;42226;42.382;23.748;2023-09-07T03:37:14;15.20;;;13.68;;
56319;SDS011;42226;42.382;23.748;2023-09-07T03:39:41;15.63;;;13.13;;
56319;SDS011;42226;42.382;23.748;2023-09-07T03:42:07;14.00;;;12.75;;
56319;SDS011;42226;42.382;23.748;2023-09-07T03:44:35;13.35;;;12.13;;
56319;SDS011;42226;42.382;23.748;2023-09-07T03:47:02;14.20;;;12.73;;
56319;SDS011;42226;42.382;23.748;2023-09-07T03:49:29;12.88;;;11.77;;
56319;SDS011;42226;42.382;23.748;2023-09-07T03:51:56;12.90;;;11.20;;
56319;SDS011;42226;42.382;23.748;2023-09-07T03:54:23;12.50;;;11.38;;
56319;SDS011;42226;42.382;23.748;2023-09-07T03:56:50;12.13;;;11.02;;
56319;SDS011;42226;42.382;23.748;2023-09-07T03:59:17;12.23;;;10.98;;
56319;SDS011;42226;42.382;23.748;2023-09-07T04:01:43;12.25;;;11.00;;
56319;SDS011;42226;42.382;23.748;2023-09-07T04:04:11;11.57;;;10.52;;
56319;SDS011;42226;42.382;23.748;2023-09-07T04:06:38;12.05;;;11.05;;
56319;SDS011;42226;42.382;23.748;2023-09-07T04:09:06;15.88;;;11.02;;
56319;SDS011;42226;42.382;23.748;2023-09-07T04:11:33;12.32;;;11.13;;
56319;SDS011;42226;42.382;23.748;2023-09-07T04:14:00;11.50;;;10.40;;
56319;SDS011;42226;42.382;23.748;2023-09-07T04:16:28;11.32;;;10.25;;
56319;SDS011;42226;42.382;23.748;2023-09-07T04:18:55;11.70;;;10.63;;
56319;SDS011;42226;42.382;23.748;2023-09-07T04:21:22;11.98;;;10.90;;
56319;SDS011;42226;42.382;23.748;2023-09-07T04:23:49;14.20;;;11.05;;
56319;SDS011;42226;42.382;23.748;2023-09-07T04:26:16;13.13;;;10.25;;
56319;SDS011;42226;42.382;23.748;2023-09-07T04:28:44;11.57;;;10.38;;
56319;SDS011;42226;42.382;23.748;2023-09-07T04:31:12;12.23;;;10.18;;
56319;SDS011;42226;42.382;23.748;2023-09-07T04:33:39;11.35;;;10.23;;
56319;SDS011;42226;42.382;23.748;2023-09-07T04:36:07;11.77;;;10.57;;
56319;SDS011;42226;42.382;23.748;2023-09-07T04:38:39;11.65;;;10.55;;
56319;SDS011;42226;42.382;23.748;2023-09-07T04:41:11;11.32;;;10.25;;
56319;SDS011;42226;42.382;23.748;2023-09-07T04:43:40;11.82;;;10.60;;
56319;SDS011;42226;42.382;23.748;2023-09-07T04:46:09;13.07;;;10.77;;
56319;SDS011;42226;42.382;23.748;2023-09-07T04:48:38;12.43;;;11.10;;
56319;SDS011;42226;42.382;23.748;2023-09-07T04:51:08;11.20;;;10.10;;
56319;SDS011;42226;42.382;23.748;2023-09-07T04:53:38;11.75;;;10.02;;
56319;SDS011;42226;42.382;23.748;2023-09-07T04:56:07;10.93;;;9.93;;
56319;SDS011;42226;42.382;23.748;2023-09-07T04:58:35;12.00;;;10.32;;
56319;SDS011;42226;42.382;23.748;2023-09-07T05:01:05;10.43;;;9.63;;
56319;SDS011;42226;42.382;23.748;2023-09-07T05:03:36;11.73;;;10.00;;
56319;SDS011;42226;42.382;23.748;2023-09-07T05:06:05;11.05;;;10.05;;
56319;SDS011;42226;42.382;23.748;2023-09-07T05:08:33;10.98;;;9.88;;
56319;SDS011;42226;42.382;23.748;2023-09-07T05:11:01;10.98;;;9.45;;
56319;SDS011;42226;42.382;23.748;2023-09-07T05:13:31;10.93;;;9.82;;
56319;SDS011;42226;42.382;23.748;2023-09-07T05:15:58;10.57;;;9.68;;
56319;SDS011;42226;42.382;23.748;2023-09-07T05:18:27;10.80;;;9.73;;
56319;SDS011;42226;42.382;23.748;2023-09-07T05:20:55;10.38;;;9.48;;
56319;SDS011;42226;42.382;23.748;2023-09-07T05:23:23;10.65;;;9.65;;
56319;SDS011;42226;42.382;23.748;2023-09-07T05:25:53;10.45;;;9.55;;
56319;SDS011;42226;42.382;23.748;2023-09-07T05:28:22;10.05;;;9.15;;
56319;SDS011;42226;42.382;23.748;2023-09-07T05:33:54;11.35;;;10.25;;
56319;SDS011;42226;42.382;23.748;2023-09-07T05:36:22;10.77;;;9.65;;
56319;SDS011;42226;42.382;23.748;2023-09-07T05:38:49;11.35;;;9.82;;
56319;SDS011;42226;42.382;23.748;2023-09-07T05:41:17;10.15;;;9.25;;
56319;SDS011;42226;42.382;23.748;2023-09-07T05:43:44;10.15;;;9.23;;
56319;SDS011;42226;42.382;23.748;2023-09-07T05:46:11;10.48;;;9.30;;
56319;SDS011;42226;42.382;23.748;2023-09-07T05:48:38;10.50;;;9.60;;
56319;SDS011;42226;42.382;23.748;2023-09-07T05:51:05;10.70;;;9.57;;
56319;SDS011;42226;42.382;23.748;2023-09-07T05:53:33;11.23;;;9.30;;
56319;SDS011;42226;42.382;23.748;2023-09-07T05:56:00;9.68;;;8.70;;
56319;SDS011;42226;42.382;23.748;2023-09-07T05:58:28;9.68;;;8.52;;
56319;SDS011;42226;42.382;23.748;2023-09-07T06:00:56;9.55;;;8.52;;
56319;SDS011;42226;42.382;23.748;2023-09-07T06:03:23;10.80;;;8.45;;
56319;SDS011;42226;42.382;23.748;2023-09-07T06:05:51;8.93;;;8.02;;
56319;SDS011;42226;42.382;23.748;2023-09-07T06:08:19;8.95;;;8.05;;
56319;SDS011;42226;42.382;23.748;2023-09-07T06:10:46;8.60;;;7.78;;
56319;SDS011;42226;42.382;23.748;2023-09-07T06:13:13;9.00;;;8.00;;
56319;SDS011;42226;42.382;23.748;2023-09-07T06:15:41;8.65;;;7.95;;
56319;SDS011;42226;42.382;23.748;2023-09-07T06:18:07;10.05;;;8.10;;
56319;SDS011;42226;42.382;23.748;2023-09-07T06:20:35;8.63;;;7.38;;
56319;SDS011;42226;42.382;23.748;2023-09-07T06:23:02;8.13;;;7.32;;
56319;SDS011;42226;42.382;23.748;2023-09-07T06:25:30;8.27;;;7.47;;
56319;SDS011;42226;42.382;23.748;2023-09-07T06:27:58;8.65;;;7.75;;
56319;SDS011;42226;42.382;23.748;2023-09-07T06:30:25;9.32;;;7.03;;
56319;SDS011;42226;42.382;23.748;2023-09-07T06:32:53;7.68;;;7.00;;
56319;SDS011;42226;42.382;23.748;2023-09-07T06:35:21;7.65;;;6.93;;
56319;SDS011;42226;42.382;23.748;2023-09-07T06:37:50;7.10;;;6.50;;
56319;SDS011;42226;42.382;23.748;2023-09-07T06:40:17;7.32;;;6.57;;
56319;SDS011;42226;42.382;23.748;2023-09-07T06:42:44;7.97;;;6.88;;
56319;SDS011;42226;42.382;23.748;2023-09-07T06:45:11;7.53;;;6.82;;
56319;SDS011;42226;42.382;23.748;2023-09-07T06:47:38;9.13;;;6.75;;
56319;SDS011;42226;42.382;23.748;2023-09-07T06:50:06;8.23;;;6.55;;
56319;SDS011;42226;42.382;23.748;2023-09-07T06:52:34;7.05;;;6.35;;
56319;SDS011;42226;42.382;23.748;2023-09-07T06:55:01;6.88;;;6.25;;
56319;SDS011;42226;42.382;23.748;2023-09-07T06:57:29;7.50;;;6.25;;
56319;SDS011;42226;42.382;23.748;2023-09-07T06:59:56;8.25;;;6.50;;
56319;SDS011;42226;42.382;23.748;2023-09-07T07:02:23;7.15;;;6.47;;
56319;SDS011;42226;42.382;23.748;2023-09-07T07:04:51;8.35;;;6.85;;
56319;SDS011;42226;42.382;23.748;2023-09-07T07:07:19;7.13;;;6.45;;
56319;SDS011;42226;42.382;23.748;2023-09-07T07:09:47;7.50;;;6.40;;
56319;SDS011;42226;42.382;23.748;2023-09-07T07:12:13;6.78;;;6.18;;
56319;SDS011;42226;42.382;23.748;2023-09-07T07:14:41;7.57;;;6.43;;
56319;SDS011;42226;42.382;23.748;2023-09-07T07:17:09;7.32;;;6.10;;
56319;SDS011;42226;42.382;23.748;2023-09-07T07:19:36;7.60;;;6.43;;
56319;SDS011;42226;42.382;23.748;2023-09-07T07:22:04;7.28;;;6.10;;
56319;SDS011;42226;42.382;23.748;2023-09-07T07:24:31;6.88;;;6.28;;
56319;SDS011;42226;42.382;23.748;2023-09-07T07:26:59;6.78;;;6.07;;
56319;SDS011;42226;42.382;23.748;2023-09-07T07:29:26;7.82;;;6.22;;
56319;SDS011;42226;42.382;23.748;2023-09-07T07:31:53;7.75;;;7.00;;
56319;SDS011;42226;42.382;23.748;2023-09-07T07:34:20;8.57;;;6.90;;
56319;SDS011;42226;42.382;23.748;2023-09-07T07:36:47;7.35;;;6.75;;
56319;SDS011;42226;42.382;23.748;2023-09-07T07:39:14;8.40;;;7.43;;
56319;SDS011;42226;42.382;23.748;2023-09-07T07:41:42;10.25;;;7.47;;
56319;SDS011;42226;42.382;23.748;2023-09-07T07:44:11;8.80;;;7.10;;
56319;SDS011;42226;42.382;23.748;2023-09-07T07:46:39;7.68;;;6.95;;
56319;SDS011;42226;42.382;23.748;2023-09-07T07:49:06;9.20;;;7.65;;
56319;SDS011;42226;42.382;23.748;2023-09-07T07:51:35;9.15;;;6.82;;
56319;SDS011;42226;42.382;23.748;2023-09-07T07:54:03;7.82;;;7.10;;
56319;SDS011;42226;42.382;23.748;2023-09-07T07:56:33;10.07;;;6.78;;
56319;SDS011;42226;42.382;23.748;2023-09-07T07:59:01;7.75;;;7.10;;
56319;SDS011;42226;42.382;23.748;2023-09-07T08:01:28;7.93;;;7.13;;
56319;SDS011;42226;42.382;23.748;2023-09-07T08:03:56;8.02;;;7.30;;
56319;SDS011;42226;42.382;23.748;2023-09-07T08:06:22;8.52;;;7.68;;
56319;SDS011;42226;42.382;23.748;2023-09-07T08:08:50;9.77;;;7.55;;
56319;SDS011;42226;42.382;23.748;2023-09-07T08:11:17;8.38;;;7.07;;
56319;SDS011;42226;42.382;23.748;2023-09-07T08:13:47;8.35;;;7.60;;
56319;SDS011;42226;42.382;23.748;2023-09-07T08:19:30;8.05;;;6.88;;
56319;SDS011;42226;42.382;23.748;2023-09-07T08:21:58;8.38;;;7.43;;
56319;SDS011;42226;42.382;23.748;2023-09-07T08:24:25;8.25;;;7.30;;
56319;SDS011;42226;42.382;23.748;2023-09-07T08:26:53;8.57;;;7.18;;
56319;SDS011;42226;42.382;23.748;2023-09-07T08:29:22;6.90;;;6.35;;
56319;SDS011;42226;42.382;23.748;2023-09-07T08:31:53;8.57;;;6.65;;
56319;SDS011;42226;42.382;23.748;2023-09-07T08:34:21;7.40;;;6.70;;
56319;SDS011;42226;42.382;23.748;2023-09-07T08:36:49;9.18;;;6.82;;
56319;SDS011;42226;42.382;23.748;2023-09-07T08:39:17;7.28;;;6.60;;
56319;SDS011;42226;42.382;23.748;2023-09-07T08:41:46;7.65;;;6.78;;
56319;SDS011;42226;42.382;23.748;2023-09-07T08:44:15;7.40;;;6.70;;
56319;SDS011;42226;42.382;23.748;2023-09-07T08:46:45;8.48;;;6.60;;
56319;SDS011;42226;42.382;23.748;2023-09-07T08:49:16;7.88;;;6.30;;
56319;SDS011;42226;42.382;23.748;2023-09-07T08:51:49;7.63;;;5.97;;
56319;SDS011;42226;42.382;23.748;2023-09-07T08:54:17;6.65;;;5.50;;
56319;SDS011;42226;42.382;23.748;2023-09-07T08:56:47;8.68;;;6.05;;
56319;SDS011;42226;42.382;23.748;2023-09-07T08:59:15;5.93;;;5.43;;
56319;SDS011;42226;42.382;23.748;2023-09-07T09:01:43;6.38;;;5.78;;
56319;SDS011;42226;42.382;23.748;2023-09-07T09:04:11;6.85;;;5.18;;
56319;SDS011;42226;42.382;23.748;2023-09-07T09:06:38;6.05;;;5.47;;
56319;SDS011;42226;42.382;23.748;2023-09-07T09:09:05;6.18;;;5.57;;
56319;SDS011;42226;42.382;23.748;2023-09-07T09:11:32;7.25;;;5.50;;
56319;SDS011;42226;42.382;23.748;2023-09-07T09:14:00;6.68;;;5.55;;
56319;SDS011;42226;42.382;23.748;2023-09-07T09:16:31;6.43;;;5.82;;
56319;SDS011;42226;42.382;23.748;2023-09-07T09:18:59;7.28;;;5.20;;
56319;SDS011;42226;42.382;23.748;2023-09-07T09:21:27;5.63;;;5.15;;
56319;SDS011;42226;42.382;23.748;2023-09-07T09:23:55;6.03;;;5.53;;
56319;SDS011;42226;42.382;23.748;2023-09-07T09:26:24;6.40;;;5.40;;
56319;SDS011;42226;42.382;23.748;2023-09-07T09:28:51;6.55;;;5.45;;
56319;SDS011;42226;42.382;23.748;2023-09-07T09:31:21;5.97;;;5.32;;
56319;SDS011;42226;42.382;23.748;2023-09-07T09:33:53;9.35;;;5.63;;
56319;SDS011;42226;42.382;23.748;2023-09-07T09:36:21;6.68;;;5.32;;
56319;SDS011;42226;42.382;23.748;2023-09-07T09:38:49;5.32;;;4.93;;
56319;SDS011;42226;42.382;23.748;2023-09-07T09:41:19;8.63;;;5.70;;
56319;SDS011;42226;42.382;23.748;2023-09-07T09:43:46;9.70;;;5.40;;
56319;SDS011;42226;42.382;23.748;2023-09-07T09:46:17;5.90;;;5.40;;
56319;SDS011;42226;42.382;23.748;2023-09-07T09:48:44;6.22;;;5.40;;
56319;SDS011;42226;42.382;23.748;2023-09-07T09:51:14;5.70;;;5.20;;
56319;SDS011;42226;42.382;23.748;2023-09-07T09:53:44;6.72;;;5.13;;
56319;SDS011;42226;42.382;23.748;2023-09-07T09:56:13;8.38;;;5.35;;
56319;SDS011;42226;42.382;23.748;2023-09-07T09:58:39;5.82;;;5.32;;
56319;SDS011;42226;42.382;23.748;2023-09-07T10:01:07;6.32;;;5.30;;
56319;SDS011;42226;42.382;23.748;2023-09-07T10:03:42;7.32;;;5.68;;
56319;SDS011;42226;42.382;23.748;2023-09-07T10:06:22;7.28;;;5.72;;
56319;SDS011;42226;42.382;23.748;2023-09-07T10:08:58;6.60;;;5.10;;
56319;SDS011;42226;42.382;23.748;2023-09-07T10:11:36;8.45;;;5.80;;
56319;SDS011;42226;42.382;23.748;2023-09-07T10:14:05;7.30;;;5.35;;
56319;SDS011;42226;42.382;23.748;2023-09-07T10:16:50;8.55;;;5.65;;
56319;SDS011;42226;42.382;23.748;2023-09-07T10:22:31;6.22;;;5.50;;
56319;SDS011;42226;42.382;23.748;2023-09-07T10:25:16;7.68;;;5.43;;
56319;SDS011;42226;42.382;23.748;2023-09-07T10:27:46;7.07;;;5.63;;
56319;SDS011;42226;42.382;23.748;2023-09-07T10:30:15;7.65;;;5.63;;
56319;SDS011;42226;42.382;23.748;2023-09-07T10:32:45;6.82;;;5.20;;
56319;SDS011;42226;42.382;23.748;2023-09-07T10:35:16;6.80;;;5.53;;
56319;SDS011;42226;42.382;23.748;2023-09-07T10:37:47;6.28;;;5.68;;
56319;SDS011;42226;42.382;23.748;2023-09-07T10:40:23;8.20;;;5.38;;
56319;SDS011;42226;42.382;23.748;2023-09-07T10:43:00;5.90;;;5.30;;
56319;SDS011;42226;42.382;23.748;2023-09-07T10:45:30;5.80;;;5.30;;
56319;SDS011;42226;42.382;23.748;2023-09-07T10:47:57;6.22;;;4.97;;
56319;SDS011;42226;42.382;23.748;2023-09-07T10:50:24;7.53;;;5.05;;
56319;SDS011;42226;42.382;23.748;2023-09-07T10:52:51;6.85;;;5.32;;
56319;SDS011;42226;42.382;23.748;2023-09-07T10:55:20;6.47;;;5.07;;
56319;SDS011;42226;42.382;23.748;2023-09-07T10:57:47;6.13;;;5.38;;
56319;SDS011;42226;42.382;23.748;2023-09-07T11:00:15;5.95;;;5.32;;
56319;SDS011;42226;42.382;23.748;2023-09-07T11:02:43;8.10;;;5.18;;
56319;SDS011;42226;42.382;23.748;2023-09-07T11:05:11;6.05;;;5.43;;
56319;SDS011;42226;42.382;23.748;2023-09-07T11:07:38;5.40;;;5.00;;
56319;SDS011;42226;42.382;23.748;2023-09-07T11:10:09;9.20;;;5.70;;
56319;SDS011;42226;42.382;23.748;2023-09-07T11:12:38;6.35;;;5.20;;
56319;SDS011;42226;42.382;23.748;2023-09-07T11:15:09;6.72;;;5.30;;
56319;SDS011;42226;42.382;23.748;2023-09-07T11:17:37;6.40;;;5.32;;
56319;SDS011;42226;42.382;23.748;2023-09-07T11:20:07;5.70;;;5.13;;
56319;SDS011;42226;42.382;23.748;2023-09-07T11:22:36;7.38;;;5.70;;
56319;SDS011;42226;42.382;23.748;2023-09-07T11:25:05;6.95;;;5.30;;
56319;SDS011;42226;42.382;23.748;2023-09-07T11:27:33;6.03;;;5.30;;
56319;SDS011;42226;42.382;23.748;2023-09-07T11:30:00;6.10;;;5.50;;
56319;SDS011;42226;42.382;23.748;2023-09-07T11:32:33;6.38;;;5.72;;
56319;SDS011;42226;42.382;23.748;2023-09-07T11:35:03;6.47;;;5.82;;
56319;SDS011;42226;42.382;23.748;2023-09-07T11:37:34;6.55;;;5.80;;
56319;SDS011;42226;42.382;23.748;2023-09-07T11:40:01;7.80;;;5.68;;
56319;SDS011;42226;42.382;23.748;2023-09-07T11:42:30;5.97;;;5.38;;
56319;SDS011;42226;42.382;23.748;2023-09-07T11:44:57;5.82;;;5.18;;
56319;SDS011;42226;42.382;23.748;2023-09-07T11:47:24;6.50;;;5.30;;
56319;SDS011;42226;42.382;23.748;2023-09-07T11:49:51;6.10;;;5.57;;
56319;SDS011;42226;42.382;23.748;2023-09-07T11:52:19;7.88;;;6.00;;
56319;SDS011;42226;42.382;23.748;2023-09-07T11:54:46;6.68;;;5.50;;
56319;SDS011;42226;42.382;23.748;2023-09-07T11:57:13;7.18;;;5.60;;
56319;SDS011;42226;42.382;23.748;2023-09-07T11:59:42;6.68;;;5.93;;
56319;SDS011;42226;42.382;23.748;2023-09-07T12:02:08;7.03;;;5.40;;
56319;SDS011;42226;42.382;23.748;2023-09-07T12:04:40;6.38;;;5.63;;
56319;SDS011;42226;42.382;23.748;2023-09-07T12:07:07;8.25;;;5.93;;
56319;SDS011;42226;42.382;23.748;2023-09-07T12:09:34;6.53;;;5.20;;
56319;SDS011;42226;42.382;23.748;2023-09-07T12:12:03;5.80;;;4.97;;
56319;SDS011;42226;42.382;23.748;2023-09-07T12:14:31;5.85;;;5.18;;
56319;SDS011;42226;42.382;23.748;2023-09-07T12:16:59;6.70;;;5.20;;
56319;SDS011;42226;42.382;23.748;2023-09-07T12:19:26;7.53;;;5.07;;
56319;SDS011;42226;42.382;23.748;2023-09-07T12:21:54;7.60;;;5.25;;
56319;SDS011;42226;42.382;23.748;2023-09-07T12:24:20;6.45;;;5.40;;
56319;SDS011;42226;42.382;23.748;2023-09-07T12:26:50;6.05;;;5.30;;
56319;SDS011;42226;42.382;23.748;2023-09-07T12:29:16;5.70;;;5.05;;
56319;SDS011;42226;42.382;23.748;2023-09-07T12:31:46;5.93;;;5.28;;
56319;SDS011;42226;42.382;23.748;2023-09-07T12:34:12;5.63;;;5.13;;
56319;SDS011;42226;42.382;23.748;2023-09-07T12:36:40;7.47;;;5.50;;
56319;SDS011;42226;42.382;23.748;2023-09-07T12:39:07;7.57;;;5.25;;
56319;SDS011;42226;42.382;23.748;2023-09-07T12:41:38;7.57;;;5.30;;
56319;SDS011;42226;42.382;23.748;2023-09-07T12:44:19;6.55;;;5.50;;
56319;SDS011;42226;42.382;23.748;2023-09-07T12:46:49;6.32;;;5.32;;
56319;SDS011;42226;42.382;23.748;2023-09-07T12:49:16;5.63;;;5.00;;
56319;SDS011;42226;42.382;23.748;2023-09-07T12:51:44;6.75;;;5.70;;
56319;SDS011;42226;42.382;23.748;2023-09-07T12:54:12;7.03;;;5.70;;
56319;SDS011;42226;42.382;23.748;2023-09-07T12:56:40;5.93;;;5.40;;
56319;SDS011;42226;42.382;23.748;2023-09-07T12:59:07;6.50;;;5.82;;
56319;SDS011;42226;42.382;23.748;2023-09-07T13:01:40;6.78;;;5.28;;
56319;SDS011;42226;42.382;23.748;2023-09-07T13:04:26;6.35;;;5.75;;
56319;SDS011;42226;42.382;23.748;2023-09-07T13:06:53;6.13;;;5.50;;
56319;SDS011;42226;42.382;23.748;2023-09-07T13:09:20;5.80;;;5.30;;
56319;SDS011;42226;42.382;23.748;2023-09-07T13:11:47;6.47;;;5.85;;
56319;SDS011;42226;42.382;23.748;2023-09-07T13:14:14;6.95;;;5.40;;
56319;SDS011;42226;42.382;23.748;2023-09-07T13:16:41;6.10;;;5.50;;
56319;SDS011;42226;42.382;23.748;2023-09-07T13:19:23;6.20;;;5.60;;
56319;SDS011;42226;42.382;23.748;2023-09-07T13:21:51;6.40;;;5.80;;
56319;SDS011;42226;42.382;23.748;2023-09-07T13:24:18;5.88;;;5.45;;
56319;SDS011;42226;42.382;23.748;2023-09-07T13:26:50;7.22;;;5.80;;
56319;SDS011;42226;42.382;23.748;2023-09-07T13:29:17;6.38;;;5.43;;
56319;SDS011;42226;42.382;23.748;2023-09-07T13:31:45;6.80;;;5.20;;
56319;SDS011;42226;42.382;23.748;2023-09-07T13:34:12;6.25;;;5.53;;
56319;SDS011;42226;42.382;23.748;2023-09-07T13:36:39;5.88;;;5.38;;
56319;SDS011;42226;42.382;23.748;2023-09-07T13:39:07;7.25;;;5.75;;
56319;SDS011;42226;42.382;23.748;2023-09-07T13:41:34;7.85;;;5.55;;
56319;SDS011;42226;42.382;23.748;2023-09-07T13:44:02;6.93;;;5.22;;
56319;SDS011;42226;42.382;23.748;2023-09-07T13:46:28;6.03;;;5.45;;
56319;SDS011;42226;42.382;23.748;2023-09-07T13:48:56;6.38;;;5.18;;
56319;SDS011;42226;42.382;23.748;2023-09-07T13:51:23;6.47;;;5.40;;
56319;SDS011;42226;42.382;23.748;2023-09-07T13:53:51;11.35;;;6.10;;
56319;SDS011;42226;42.382;23.748;2023-09-07T13:56:19;7.85;;;5.90;;
56319;SDS011;42226;42.382;23.748;2023-09-07T13:58:46;10.77;;;6.13;;
56319;SDS011;42226;42.382;23.748;2023-09-07T14:01:13;6.88;;;6.28;;
56319;SDS011;42226;42.382;23.748;2023-09-07T14:03:42;8.48;;;6.53;;
56319;SDS011;42226;42.382;23.748;2023-09-07T14:06:10;6.40;;;5.80;;
56319;SDS011;42226;42.382;23.748;2023-09-07T14:08:36;6.63;;;5.97;;
56319;SDS011;42226;42.382;23.748;2023-09-07T14:11:03;6.40;;;5.80;;
56319;SDS011;42226;42.382;23.748;2023-09-07T14:13:31;7.03;;;5.78;;
56319;SDS011;42226;42.382;23.748;2023-09-07T14:16:01;8.85;;;5.80;;
56319;SDS011;42226;42.382;23.748;2023-09-07T14:18:28;6.57;;;6.00;;
56319;SDS011;42226;42.382;23.748;2023-09-07T14:20:56;9.18;;;6.13;;
56319;SDS011;42226;42.382;23.748;2023-09-07T14:23:24;7.68;;;6.05;;
56319;SDS011;42226;42.382;23.748;2023-09-07T14:25:53;8.32;;;6.10;;
56319;SDS011;42226;42.382;23.748;2023-09-07T14:28:21;7.47;;;6.00;;
56319;SDS011;42226;42.382;23.748;2023-09-07T14:30:49;6.60;;;5.88;;
56319;SDS011;42226;42.382;23.748;2023-09-07T14:33:17;7.63;;;6.10;;
56319;SDS011;42226;42.382;23.748;2023-09-07T14:35:43;7.43;;;6.32;;
56319;SDS011;42226;42.382;23.748;2023-09-07T14:38:13;6.65;;;5.95;;
56319;SDS011;42226;42.382;23.748;2023-09-07T14:40:39;8.38;;;6.35;;
56319;SDS011;42226;42.382;23.748;2023-09-07T14:43:09;7.03;;;6.40;;